createdAt,value
2022-10-30T00:00:43.464Z,11.20
2022-10-30T00:03:11.965Z,11.20
2022-10-30T00:05:40.937Z,11.10
2022-10-30T00:08:07.487Z,11.20
2022-10-30T00:10:34.408Z,11.10
2022-10-30T00:13:01.132Z,11.10
2022-10-30T00:15:27.783Z,11.20
2022-10-30T00:17:54.420Z,11.20
2022-10-30T00:20:21.055Z,11.20
2022-10-30T00:22:47.572Z,11.10
2022-10-30T00:25:14.165Z,11.00
2022-10-30T00:27:40.784Z,11.00
2022-10-30T00:30:07.689Z,10.90
2022-10-30T00:32:34.234Z,10.80
2022-10-30T00:35:00.787Z,10.90
2022-10-30T00:37:27.301Z,10.90
2022-10-30T00:39:53.812Z,10.90
2022-10-30T00:42:20.434Z,10.90
2022-10-30T00:44:53.326Z,10.80
2022-10-30T00:47:37.358Z,10.70
2022-10-30T00:50:07.658Z,10.60
2022-10-30T00:52:35.814Z,10.60
2022-10-30T00:55:05.988Z,10.50
2022-10-30T00:57:32.796Z,10.50
2022-10-30T00:59:59.687Z,10.40
2022-10-30T01:02:26.875Z,10.40
2022-10-30T01:04:54.328Z,10.40
2022-10-30T01:07:21.132Z,10.40
2022-10-30T01:09:48.011Z,10.30
2022-10-30T01:12:15.109Z,10.30
2022-10-30T01:14:44.980Z,10.40
2022-10-30T01:17:30.662Z,10.40
2022-10-30T01:20:06.265Z,10.40
2022-10-30T01:22:51.378Z,10.40
2022-10-30T01:25:26.073Z,10.40
2022-10-30T01:28:17.560Z,10.40
2022-10-30T01:31:02.354Z,10.40
2022-10-30T01:33:37.375Z,10.30
2022-10-30T01:36:06.679Z,10.30
2022-10-30T01:38:39.500Z,10.30
2022-10-30T01:41:06.013Z,10.40
2022-10-30T01:43:33.047Z,10.40
2022-10-30T01:46:18.039Z,10.40
2022-10-30T01:48:54.161Z,10.40
2022-10-30T01:51:37.678Z,10.40
2022-10-30T01:54:04.247Z,10.40
2022-10-30T01:56:37.447Z,10.40
2022-10-30T01:59:22.608Z,10.40
2022-10-30T02:01:49.558Z,10.40
2022-10-30T02:04:16.277Z,10.60
2022-10-30T02:06:42.857Z,10.60
2022-10-30T02:09:09.475Z,10.70
2022-10-30T02:11:37.360Z,10.80
2022-10-30T02:14:05.602Z,10.90
2022-10-30T02:16:37.424Z,11.10
2022-10-30T02:19:03.989Z,11.60
2022-10-30T02:21:30.524Z,12.00
2022-10-30T02:23:57.094Z,12.10
2022-10-30T02:26:23.653Z,12.10
2022-10-30T02:28:50.218Z,12.00
2022-10-30T02:31:16.928Z,12.00
2022-10-30T02:33:44.425Z,11.90
2022-10-30T02:36:10.959Z,11.80
2022-10-30T02:38:37.486Z,11.80
2022-10-30T02:41:04.156Z,11.70
2022-10-30T02:43:30.670Z,11.60
2022-10-30T02:45:57.274Z,11.60
2022-10-30T02:48:23.796Z,11.50
2022-10-30T02:54:18.369Z,11.40
2022-10-30T02:56:44.936Z,11.40
2022-10-30T02:59:11.585Z,11.40
2022-10-30T03:01:38.235Z,11.30
2022-10-30T03:04:05.021Z,11.30
2022-10-30T03:06:31.764Z,11.20
2022-10-30T03:08:58.582Z,11.20
2022-10-30T03:11:25.156Z,11.20
2022-10-30T03:13:51.753Z,11.20
2022-10-30T03:16:20.317Z,11.10
2022-10-30T03:18:47.131Z,11.10
2022-10-30T03:21:15.672Z,11.00
2022-10-30T03:23:42.571Z,11.00
2022-10-30T03:26:09.264Z,11.00
2022-10-30T03:28:36.065Z,11.00
2022-10-30T03:31:04.615Z,10.90
2022-10-30T03:33:31.962Z,10.90
2022-10-30T03:35:59.031Z,10.80
2022-10-30T03:38:25.618Z,10.80
2022-10-30T03:40:52.153Z,10.80
2022-10-30T03:43:19.239Z,10.80
2022-10-30T03:45:46.767Z,10.80
2022-10-30T03:48:13.365Z,10.90
2022-10-30T03:50:39.884Z,10.90
2022-10-30T03:53:06.443Z,10.90
2022-10-30T03:55:33.000Z,10.90
2022-10-30T03:57:59.832Z,10.90
2022-10-30T04:00:26.540Z,10.90
2022-10-30T04:02:53.102Z,10.80
2022-10-30T04:05:20.546Z,10.90
2022-10-30T04:07:47.295Z,10.80
2022-10-30T04:10:16.676Z,10.90
2022-10-30T04:12:45.784Z,10.80
2022-10-30T04:15:12.286Z,10.90
2022-10-30T04:17:38.798Z,10.80
2022-10-30T04:20:05.781Z,10.90
2022-10-30T04:22:32.324Z,10.90
2022-10-30T04:24:58.914Z,10.90
2022-10-30T04:27:25.419Z,10.90
2022-10-30T04:29:52.749Z,10.80
2022-10-30T04:32:20.040Z,10.80
2022-10-30T04:34:46.576Z,10.80
2022-10-30T04:37:13.117Z,10.70
2022-10-30T04:39:43.744Z,10.70
2022-10-30T04:42:12.772Z,10.70
2022-10-30T04:44:39.286Z,10.70
2022-10-30T04:47:05.857Z,10.70
2022-10-30T04:49:32.384Z,10.60
2022-10-30T04:51:59.011Z,10.60
2022-10-30T04:54:25.564Z,10.60
2022-10-30T04:56:52.095Z,10.60
2022-10-30T04:59:18.639Z,10.60
2022-10-30T05:01:45.252Z,10.60
2022-10-30T05:04:11.888Z,10.60
2022-10-30T05:06:38.483Z,10.60
2022-10-30T05:09:05.011Z,10.60
2022-10-30T05:11:31.723Z,10.60
2022-10-30T05:13:58.250Z,10.60
2022-10-30T05:16:24.777Z,10.60
2022-10-30T05:18:51.474Z,10.60
2022-10-30T05:21:18.030Z,10.50
2022-10-30T05:23:44.704Z,10.50
2022-10-30T05:26:11.239Z,10.60
2022-10-30T05:28:37.738Z,10.60
2022-10-30T05:31:04.455Z,10.60
2022-10-30T05:33:30.946Z,10.50
2022-10-30T05:35:57.478Z,10.50
2022-10-30T05:38:23.986Z,10.50
2022-10-30T05:40:50.664Z,10.60
2022-10-30T05:43:17.170Z,10.50
2022-10-30T05:45:43.978Z,10.50
2022-10-30T05:48:10.659Z,10.50
2022-10-30T05:50:37.169Z,10.40
2022-10-30T05:53:04.447Z,10.50
2022-10-30T05:55:31.250Z,10.50
2022-10-30T05:58:02.471Z,10.50
2022-10-30T06:00:29.991Z,10.40
2022-10-30T06:03:01.188Z,10.40
2022-10-30T06:05:29.978Z,10.40
2022-10-30T06:07:56.668Z,10.50
2022-10-30T06:10:23.650Z,10.50
2022-10-30T06:12:53.895Z,10.60
2022-10-30T06:15:20.472Z,10.60
2022-10-30T06:17:46.987Z,10.60
2022-10-30T06:20:13.651Z,10.60
2022-10-30T06:22:40.437Z,10.60
2022-10-30T06:25:07.170Z,10.60
2022-10-30T06:27:36.581Z,10.60
2022-10-30T06:30:03.317Z,10.70
2022-10-30T06:32:29.849Z,10.70
2022-10-30T06:34:56.362Z,10.80
2022-10-30T06:37:22.965Z,10.80
2022-10-30T06:39:49.499Z,10.80
2022-10-30T06:42:15.999Z,10.80
2022-10-30T06:44:42.556Z,10.90
2022-10-30T06:47:09.113Z,10.90
2022-10-30T06:49:35.649Z,10.90
2022-10-30T06:52:02.179Z,11.00
2022-10-30T06:54:28.730Z,11.00
2022-10-30T06:56:55.276Z,11.10
2022-10-30T06:59:21.852Z,11.10
2022-10-30T07:01:48.430Z,11.20
2022-10-30T07:04:15.164Z,11.20
2022-10-30T07:06:41.796Z,11.30
2022-10-30T07:09:08.317Z,11.30
2022-10-30T07:11:36.615Z,11.40
2022-10-30T07:14:03.179Z,11.40
2022-10-30T07:16:29.794Z,11.40
2022-10-30T07:18:58.234Z,11.50
2022-10-30T07:21:27.321Z,11.60
2022-10-30T07:23:53.836Z,11.60
2022-10-30T07:26:20.430Z,11.70
2022-10-30T07:28:47.056Z,11.70
2022-10-30T07:31:17.190Z,11.80
2022-10-30T07:33:50.802Z,11.80
2022-10-30T07:36:17.408Z,11.90
2022-10-30T07:38:43.978Z,12.00
2022-10-30T07:41:10.806Z,12.00
2022-10-30T07:43:37.368Z,12.00
2022-10-30T07:46:04.094Z,12.10
2022-10-30T07:48:30.701Z,12.10
2022-10-30T07:50:57.463Z,12.10
2022-10-30T07:53:23.992Z,12.10
2022-10-30T07:55:50.559Z,12.20
2022-10-30T07:58:17.186Z,12.20
2022-10-30T08:00:43.769Z,12.30
2022-10-30T08:03:11.110Z,12.40
2022-10-30T08:05:37.627Z,12.50
2022-10-30T08:08:04.303Z,12.60
2022-10-30T08:10:30.876Z,12.60
2022-10-30T08:12:57.401Z,12.70
2022-10-30T08:15:23.973Z,12.70
2022-10-30T08:17:50.822Z,12.70
2022-10-30T08:20:18.509Z,12.80
2022-10-30T08:22:45.846Z,12.80
2022-10-30T08:25:12.374Z,12.80
2022-10-30T08:27:38.926Z,12.80
2022-10-30T08:30:05.735Z,12.90
2022-10-30T08:32:32.267Z,13.00
2022-10-30T08:34:58.818Z,13.00
2022-10-30T08:37:25.330Z,13.10
2022-10-30T08:39:51.839Z,13.20
2022-10-30T08:42:18.359Z,13.30
2022-10-30T08:44:44.887Z,13.40
2022-10-30T08:47:11.420Z,13.50
2022-10-30T08:49:37.974Z,13.60
2022-10-30T08:52:07.638Z,13.70
2022-10-30T08:54:34.178Z,13.80
2022-10-30T08:57:00.973Z,13.90
2022-10-30T08:59:27.551Z,14.00
2022-10-30T09:01:54.258Z,14.10
2022-10-30T09:04:20.919Z,14.20
2022-10-30T09:06:47.775Z,14.30
2022-10-30T09:09:15.407Z,14.30
2022-10-30T09:11:42.018Z,14.40
2022-10-30T09:14:08.730Z,14.40
2022-10-30T09:16:35.261Z,14.50
2022-10-30T09:21:52.443Z,14.70
2022-10-30T09:24:20.262Z,14.80
2022-10-30T09:26:46.877Z,14.80
2022-10-30T09:29:13.367Z,14.80
2022-10-30T09:31:39.966Z,14.80
2022-10-30T09:34:06.607Z,14.90
2022-10-30T09:36:33.220Z,14.90
2022-10-30T09:38:59.804Z,14.90
2022-10-30T09:41:39.448Z,15.00
2022-10-30T09:44:32.158Z,15.00
2022-10-30T09:47:08.844Z,15.20
2022-10-30T09:49:35.480Z,15.30
2022-10-30T09:52:13.609Z,15.30
2022-10-30T09:54:53.818Z,15.40
2022-10-30T09:57:26.414Z,15.40
2022-10-30T10:00:02.063Z,15.50
2022-10-30T10:02:31.808Z,15.50
2022-10-30T10:05:00.777Z,15.50
2022-10-30T10:07:29.939Z,15.50
2022-10-30T10:10:03.220Z,15.60
2022-10-30T10:12:32.784Z,15.70
2022-10-30T10:15:00.595Z,15.70
2022-10-30T10:17:33.855Z,15.80
2022-10-30T10:20:01.157Z,15.90
2022-10-30T10:22:27.735Z,16.00
2022-10-30T10:24:54.974Z,16.10
2022-10-30T10:27:21.477Z,16.20
2022-10-30T10:30:06.587Z,16.30
2022-10-30T10:32:45.451Z,16.40
2022-10-30T10:35:23.504Z,16.70
2022-10-30T10:38:04.898Z,16.80
2022-10-30T10:40:40.286Z,16.90
2022-10-30T10:43:27.269Z,17.10
2022-10-30T10:46:11.245Z,17.20
2022-10-30T10:49:00.385Z,17.20
2022-10-30T10:51:30.903Z,17.30
2022-10-30T10:54:02.835Z,17.30
2022-10-30T10:56:31.726Z,17.30
2022-10-30T10:59:01.128Z,17.40
2022-10-30T11:01:50.151Z,17.40
2022-10-30T11:04:30.754Z,17.50
2022-10-30T11:06:58.346Z,17.60
2022-10-30T11:09:27.206Z,17.70
2022-10-30T11:11:55.402Z,17.80
2022-10-30T11:14:23.743Z,17.90
2022-10-30T11:16:50.253Z,18.00
2022-10-30T11:19:17.050Z,18.10
2022-10-30T11:21:47.815Z,18.30
2022-10-30T11:24:26.328Z,18.40
2022-10-30T11:26:53.568Z,18.40
2022-10-30T11:29:24.636Z,18.40
2022-10-30T11:32:05.013Z,18.40
2022-10-30T11:34:32.984Z,18.40
2022-10-30T11:36:59.573Z,18.40
2022-10-30T11:39:28.695Z,18.40
2022-10-30T11:42:00.338Z,18.50
2022-10-30T11:44:38.043Z,18.60
2022-10-30T11:47:05.362Z,18.60
2022-10-30T11:49:35.970Z,18.70
2022-10-30T11:52:03.250Z,18.60
2022-10-30T11:54:29.761Z,18.70
2022-10-30T11:56:56.816Z,18.70
2022-10-30T11:59:24.728Z,18.80
2022-10-30T12:01:58.821Z,18.80
2022-10-30T12:04:27.242Z,19.00
2022-10-30T12:07:12.231Z,19.00
2022-10-30T12:09:41.951Z,19.10
2022-10-30T12:12:12.575Z,19.10
2022-10-30T12:14:39.484Z,19.30
2022-10-30T12:17:06.162Z,19.40
2022-10-30T12:19:32.781Z,19.30
2022-10-30T12:22:01.375Z,19.30
2022-10-30T12:24:27.969Z,19.30
2022-10-30T12:26:55.255Z,19.30
2022-10-30T12:29:26.320Z,19.30
2022-10-30T12:31:58.053Z,19.30
2022-10-30T12:34:36.024Z,19.30
2022-10-30T12:37:11.702Z,19.20
2022-10-30T12:39:41.398Z,19.20
2022-10-30T12:42:12.307Z,19.20
2022-10-30T12:44:47.873Z,19.30
2022-10-30T12:47:26.973Z,19.30
2022-10-30T12:50:16.452Z,19.30
2022-10-30T12:52:50.521Z,19.20
2022-10-30T12:55:36.092Z,19.20
2022-10-30T12:58:14.955Z,19.30
2022-10-30T13:00:45.871Z,19.30
2022-10-30T13:03:22.458Z,19.30
2022-10-30T13:05:54.521Z,19.30
2022-10-30T13:08:27.509Z,19.30
2022-10-30T13:10:56.600Z,19.30
2022-10-30T13:13:25.342Z,19.30
2022-10-30T13:15:53.476Z,19.20
2022-10-30T13:18:22.030Z,19.20
2022-10-30T13:20:55.973Z,19.20
2022-10-30T13:23:27.788Z,19.30
2022-10-30T13:25:57.275Z,19.40
2022-10-30T13:28:29.270Z,19.40
2022-10-30T13:31:01.907Z,19.50
2022-10-30T13:33:51.383Z,19.50
2022-10-30T13:36:21.983Z,19.60
2022-10-30T13:38:56.686Z,19.70
2022-10-30T13:41:26.359Z,19.70
2022-10-30T13:43:52.915Z,19.60
2022-10-30T13:46:34.753Z,19.60
2022-10-30T13:49:24.725Z,19.50
2022-10-30T13:51:55.299Z,19.60
2022-10-30T13:54:33.656Z,19.50
2022-10-30T13:57:05.048Z,19.50
2022-10-30T13:59:52.039Z,19.40
2022-10-30T14:02:24.881Z,19.30
2022-10-30T14:04:58.581Z,19.20
2022-10-30T14:07:25.125Z,19.20
2022-10-30T14:09:51.662Z,19.20
2022-10-30T14:12:57.156Z,19.10
2022-10-30T14:15:29.571Z,19.10
2022-10-30T14:18:11.397Z,19.00
2022-10-30T14:20:57.078Z,19.00
2022-10-30T14:23:23.672Z,19.00
2022-10-30T14:26:02.958Z,18.90
2022-10-30T14:28:30.228Z,18.80
2022-10-30T14:31:01.611Z,18.70
2022-10-30T14:33:40.275Z,18.60
2022-10-30T14:36:14.561Z,18.50
2022-10-30T14:38:41.274Z,18.50
2022-10-30T14:41:28.218Z,18.40
2022-10-30T14:44:10.459Z,18.30
2022-10-30T14:46:46.215Z,18.20
2022-10-30T14:49:27.708Z,18.10
2022-10-30T14:52:00.271Z,17.90
2022-10-30T14:54:38.722Z,17.80
2022-10-30T14:57:19.659Z,17.70
2022-10-30T14:59:46.438Z,17.60
2022-10-30T15:02:13.101Z,17.40
2022-10-30T15:05:05.543Z,17.30
2022-10-30T15:07:50.450Z,17.30
2022-10-30T15:10:19.492Z,17.20
2022-10-30T15:13:03.469Z,17.10
2022-10-30T15:15:30.418Z,17.00
2022-10-30T15:17:58.679Z,17.00
2022-10-30T15:20:29.514Z,16.90
2022-10-30T15:22:58.349Z,16.80
2022-10-30T15:25:28.092Z,16.80
2022-10-30T15:27:55.317Z,16.70
2022-10-30T15:30:23.570Z,16.60
2022-10-30T15:32:50.082Z,16.50
2022-10-30T15:35:16.615Z,16.40
2022-10-30T15:38:01.595Z,16.30
2022-10-30T15:40:28.908Z,16.20
2022-10-30T15:42:55.953Z,16.00
2022-10-30T15:45:29.399Z,15.80
2022-10-30T15:48:19.368Z,15.70
2022-10-30T15:50:53.354Z,15.50
2022-10-30T15:53:20.875Z,15.30
2022-10-30T15:55:48.210Z,15.20
2022-10-30T15:58:16.442Z,15.10
2022-10-30T16:00:54.332Z,14.90
2022-10-30T16:03:20.885Z,14.80
2022-10-30T16:05:47.518Z,14.70
2022-10-30T16:08:21.920Z,14.60
2022-10-30T16:10:49.027Z,14.50
2022-10-30T16:13:21.847Z,14.40
2022-10-30T16:15:49.638Z,14.30
2022-10-30T16:18:18.070Z,14.20
2022-10-30T16:20:47.784Z,14.10
2022-10-30T16:23:14.595Z,14.10
2022-10-30T16:25:46.820Z,14.00
2022-10-30T16:28:30.719Z,13.90
2022-10-30T16:31:00.150Z,13.80
2022-10-30T16:33:27.970Z,13.80
2022-10-30T16:35:55.951Z,13.70
2022-10-30T16:38:23.755Z,13.60
2022-10-30T16:40:50.823Z,13.60
2022-10-30T16:43:28.466Z,13.50
2022-10-30T16:45:56.398Z,13.50
2022-10-30T16:48:27.746Z,13.40
2022-10-30T16:50:59.103Z,13.40
2022-10-30T16:53:25.987Z,13.30
2022-10-30T16:55:53.199Z,13.20
2022-10-30T16:58:20.476Z,13.20
2022-10-30T17:00:54.267Z,13.20
2022-10-30T17:03:26.548Z,13.10
2022-10-30T17:06:16.510Z,13.00
2022-10-30T17:08:43.346Z,12.90
2022-10-30T17:11:17.600Z,12.90
2022-10-30T17:13:56.648Z,12.90
2022-10-30T17:16:25.510Z,12.90
2022-10-30T17:18:56.447Z,12.80
2022-10-30T17:21:22.996Z,12.80
2022-10-30T17:23:50.933Z,12.70
2022-10-30T17:26:18.272Z,12.70
2022-10-30T17:28:45.514Z,12.70
2022-10-30T17:31:17.765Z,12.60
2022-10-30T17:33:45.262Z,12.60
2022-10-30T17:36:11.830Z,12.50
2022-10-30T17:38:38.634Z,12.50
2022-10-30T17:41:06.368Z,12.40
2022-10-30T17:43:34.248Z,12.40
2022-10-30T17:46:00.960Z,12.40
2022-10-30T17:48:28.636Z,12.30
2022-10-30T17:50:55.679Z,12.30
2022-10-30T17:53:23.578Z,12.30
2022-10-30T17:56:04.846Z,12.20
2022-10-30T17:58:31.391Z,12.20
2022-10-30T18:00:58.457Z,12.20
2022-10-30T18:03:27.062Z,12.20
2022-10-30T18:05:54.992Z,12.10
2022-10-30T18:08:21.763Z,12.10
2022-10-30T18:10:48.808Z,12.10
2022-10-30T18:13:15.956Z,12.10
2022-10-30T18:15:51.811Z,12.10
2022-10-30T18:18:18.370Z,12.10
2022-10-30T18:20:44.918Z,12.00
2022-10-30T18:23:32.188Z,11.90
2022-10-30T18:26:06.100Z,11.90
2022-10-30T18:28:32.838Z,11.80
2022-10-30T18:31:01.064Z,11.80
2022-10-30T18:33:27.632Z,11.80
2022-10-30T18:35:54.964Z,11.70
2022-10-30T18:38:21.608Z,11.70
2022-10-30T18:40:48.171Z,11.60
2022-10-30T18:43:14.807Z,11.60
2022-10-30T18:45:43.731Z,11.60
2022-10-30T18:48:11.013Z,11.60
2022-10-30T18:50:37.861Z,11.60
2022-10-30T18:53:06.311Z,11.50
2022-10-30T18:55:39.363Z,11.50
2022-10-30T18:58:06.913Z,11.40
2022-10-30T19:00:44.870Z,11.40
2022-10-30T19:03:18.044Z,11.40
2022-10-30T19:05:45.584Z,11.40
2022-10-30T19:08:12.353Z,11.40
2022-10-30T19:10:40.730Z,11.40
2022-10-30T19:13:19.603Z,11.30
2022-10-30T19:15:47.808Z,11.30
2022-10-30T19:18:16.141Z,11.20
2022-10-30T19:21:03.372Z,11.20
2022-10-30T19:23:29.549Z,11.20
2022-10-30T19:25:56.163Z,11.10
2022-10-30T19:28:22.951Z,11.10
2022-10-30T19:30:54.598Z,11.10
2022-10-30T19:33:22.369Z,11.10
2022-10-30T19:36:01.057Z,11.10
2022-10-30T19:38:27.910Z,11.00
2022-10-30T19:40:58.784Z,10.90
2022-10-30T19:43:25.500Z,10.90
2022-10-30T19:45:55.419Z,10.90
2022-10-30T19:48:40.435Z,10.80
2022-10-30T19:51:11.396Z,10.80
2022-10-30T19:53:38.456Z,10.80
2022-10-30T19:56:05.233Z,10.80
2022-10-30T19:58:31.758Z,10.80
2022-10-30T20:00:58.400Z,10.70
2022-10-30T20:03:25.045Z,10.70
2022-10-30T20:05:51.598Z,10.70
2022-10-30T20:08:19.583Z,10.80
2022-10-30T20:10:50.510Z,10.80
2022-10-30T20:13:17.411Z,10.70
2022-10-30T20:15:44.032Z,10.70
2022-10-30T20:18:12.715Z,10.70
2022-10-30T20:20:40.751Z,10.60
2022-10-30T20:23:07.454Z,10.60
2022-10-30T20:25:34.034Z,10.70
2022-10-30T20:28:06.637Z,10.60
2022-10-30T20:30:33.783Z,10.60
2022-10-30T20:33:00.640Z,10.60
2022-10-30T20:35:27.403Z,10.60
2022-10-30T20:38:01.375Z,10.60
2022-10-30T20:40:29.688Z,10.60
2022-10-30T20:43:00.012Z,10.50
2022-10-30T20:45:29.843Z,10.50
2022-10-30T20:47:56.626Z,10.50
2022-10-30T20:50:23.408Z,10.50
2022-10-30T20:52:49.928Z,10.50
2022-10-30T20:55:16.855Z,10.50
2022-10-30T20:57:43.481Z,10.40
2022-10-30T21:00:11.452Z,10.40
2022-10-30T21:02:38.060Z,10.40
2022-10-30T21:05:12.132Z,10.40
2022-10-30T21:07:51.376Z,10.40
2022-10-30T21:10:17.935Z,10.30
2022-10-30T21:12:44.493Z,10.30
2022-10-30T21:15:11.089Z,10.30
2022-10-30T21:17:37.649Z,10.40
2022-10-30T21:20:04.480Z,10.30
2022-10-30T21:22:31.100Z,10.30
2022-10-30T21:24:57.610Z,10.30
2022-10-30T21:27:24.173Z,10.30
2022-10-30T21:29:50.688Z,10.30
2022-10-30T21:32:17.276Z,10.20
2022-10-30T21:34:43.906Z,10.20
2022-10-30T21:37:10.412Z,10.20
2022-10-30T21:39:36.934Z,10.20
2022-10-30T21:42:03.568Z,10.10
2022-10-30T21:44:30.153Z,10.20
2022-10-30T21:46:56.975Z,10.20
2022-10-30T21:49:23.490Z,10.10
2022-10-30T21:51:50.550Z,10.10
2022-10-30T21:54:18.114Z,10.10
2022-10-30T21:56:45.989Z,10.10
2022-10-30T21:59:12.906Z,10.10
2022-10-30T22:01:40.720Z,10.00
2022-10-30T22:04:09.205Z,9.90
2022-10-30T22:06:43.079Z,9.90
2022-10-30T22:09:10.278Z,9.90
2022-10-30T22:11:37.059Z,10.00
2022-10-30T22:14:05.087Z,9.90
2022-10-30T22:16:33.159Z,9.90
2022-10-30T22:18:59.843Z,9.90
2022-10-30T22:21:26.407Z,9.80
2022-10-30T22:23:52.965Z,9.80
2022-10-30T22:26:21.057Z,9.80
2022-10-30T22:28:47.647Z,9.80
2022-10-30T22:31:15.668Z,9.70
2022-10-30T22:33:42.571Z,9.70
2022-10-30T22:36:13.827Z,9.70
2022-10-30T22:38:40.388Z,9.80
2022-10-30T22:41:08.291Z,9.80
2022-10-30T22:43:34.834Z,9.70
2022-10-30T22:46:01.444Z,9.70
2022-10-30T22:48:28.981Z,9.70
2022-10-30T22:50:56.622Z,9.70
2022-10-30T22:53:23.302Z,9.70
2022-10-30T22:55:49.801Z,9.60
2022-10-30T22:58:16.360Z,9.50
2022-10-30T23:00:42.883Z,9.50
2022-10-30T23:03:09.501Z,9.40
2022-10-30T23:05:36.135Z,9.40
2022-10-30T23:08:03.543Z,9.40
2022-10-30T23:10:30.219Z,9.50
2022-10-30T23:12:56.989Z,9.40
2022-10-30T23:15:23.876Z,9.60
2022-10-30T23:17:50.687Z,9.50
2022-10-30T23:20:17.351Z,9.50
2022-10-30T23:22:43.843Z,9.50
2022-10-30T23:25:10.626Z,9.40
2022-10-30T23:27:37.267Z,9.30
2022-10-30T23:30:04.018Z,9.30
2022-10-30T23:32:30.643Z,9.30
2022-10-30T23:34:57.234Z,9.30
2022-10-30T23:37:23.825Z,9.40
2022-10-30T23:39:50.498Z,9.40
2022-10-30T23:42:17.098Z,9.40
2022-10-30T23:44:43.635Z,9.50
2022-10-30T23:47:10.155Z,9.40
2022-10-30T23:49:36.861Z,9.40
2022-10-30T23:52:03.482Z,9.30
2022-10-30T23:54:30.081Z,9.30
2022-10-30T23:56:56.644Z,9.30
2022-10-30T23:59:23.278Z,9.30
